Waarschuwingen Drenthe

Code Geel.Enkele (onweers)buien, mogelijk met hagel en windstoten tot ca. 60 km/u.

Kans op blikseminslag, hagel en windstoten. Verkeer en buitenactiviteiten kunnen hinder ondervinden. Mijd open water en open gebied, schuil niet onder bomen. Volg weerberichten en waarschuwingen. (van 01/10/2022 13:00 tot 01/10/2022 17:00 uur)

Bron: KNMI



Webcam op het Zuiden Meer informatie Webcam op het Zuiden


Webcam op het Westen Meer informatie Webcam op het Westen


Onweer radar Meer informatie blitzortung!


Regen radar  rain snow radar


Lokaal brand risico:
CBI


Regionaal brand risico: Meer informatie


Lokaal brand risico:
Gebaseerd op actuele waarde
CBI


Bezoek ook deze websites:

Template documentation
and downloads

And another site



METAR rapporten vliegvelden

   
ETWM - Meppen, Germany
Afstand tot: O 29 km
Gewijzigd: 01-10-2022 13:20
  
  
   Wind: ZZW 13 km/h
Wind: ZZW 13 km/h
Temperatuur: 16°C
Dauwpunt: 12°C
Vochtigheid: 77%
Barometer: 1001 hPa
ETWM 011120Z AUTO 21007KT //// // ////// 16/12 Q1001 ///
EHGG - Groningen/Eelde, Netherlands
Afstand tot: NNW 47 km
Gewijzigd: 01-10-2022 13:25
Wat regen mogelijk, Gedeeltelijk bewolkt  
Wat regen mogelijk, Gedeeltelijk bewolkt  
   Wind: WZW 16.7 km/h
Wind: WZW 16.7 km/h
Temperatuur: 14°C
Dauwpunt: 13°C
Vochtigheid: 94%
Barometer: 1002 hPa
Bewolking: Gedeeltelijk bewolkt
Zicht: meer dan 10 km
Bewolking: Licht bewolkt 800 ft,
Gedeeltelijk bewolkt 1200 ft,
Licht bewolkt 1500 ft
EHGG 011125Z AUTO 25009KT 200V270 9999 -RA FEW008 SCT012 FEW015CB 14/13 Q1002 TEMPO 7000 SHRA FEW020CB
EDDG - Muenster/Osnabru, Germany
Afstand tot: ZO 87 km
Gewijzigd: 01-10-2022 13:20
Regenbuien, Regen, Licht bewolkt  
Regenbuien, Regen, Licht bewolkt  
   Wind: WZW 24.1 km/h
Wind: WZW 24.1 km/h
Bewolking: Licht bewolkt
Zicht: meer dan 10 km
Bewolking: Licht bewolkt 2200 ft
EDDG 011120Z AUTO 24013KT 210V280 9999 SHRA FEW022 FEW///CB 15/13 Q1003 BECMG NSW
EHLW - Leeuwarden Rnlaf, Netherlands
Afstand tot: NW 93 km
Gewijzigd: 01-10-2022 13:25
Grotendeels bewolkt  
Grotendeels bewolkt  
   Wind: WNW 24.1 km/h
Wind: WNW 24.1 km/h
Temperatuur: 16°C
Dauwpunt: 11°C
Vochtigheid: 72%
Barometer: 1002 hPa
Bewolking: Grotendeels bewolkt
Zicht: meer dan 10 km
Bewolking: Licht bewolkt 1800 ft,
Gedeeltelijk bewolkt 4900 ft,
Grotendeels bewolkt 5400 ft
EHLW 011125Z AUTO 29013KT 250V320 9999 FEW018CB SCT049 BKN054 16/11 Q1002 BLU
ETNT - Wittmundhaven(Ga, Germany
Afstand tot: NNO 100 km
Gewijzigd: 01-10-2022 13:20
  
  
   Wind: varieert Kalm
Wind: varieert Kalm
Temperatuur: 13°C
Dauwpunt: 10°C
Vochtigheid: 82%
Barometer: 1000 hPa
ETNT 011120Z AUTO ///15G28KT //// // ////// 13/10 Q1000 ///
ETND - Diepholz (ger-Af, Germany
Afstand tot: O 104 km
Gewijzigd: 30-09-2022 11:20
Verouderd
Licht bewolkt  
Licht bewolkt  
   Wind: ZW 13 km/h
Wind: ZW 13 km/h
Temperatuur: 13°C
Dauwpunt: 8°C
Vochtigheid: 72%
Barometer: 1010 hPa
Bewolking: Licht bewolkt
Zicht: meer dan 10 km
Bewolking: Licht bewolkt 22000 ft
ETND 300920Z 22007KT 9999 FEW220 13/08 Q1010 BLU+
ETNT - Wittmundhaven(Ga, Germany
Afstand tot: NNO 102 km
Gewijzigd: 01-10-2022 13:20
  
  
   Wind: varieert Kalm
Wind: varieert Kalm
Temperatuur: 13°C
Dauwpunt: 10°C
Vochtigheid: 82%
Barometer: 1000 hPa
ETNT 011120Z AUTO ///15G28KT //// // ////// 13/10 Q1000 ///
EHDL - Deelen Rnlafb, Netherlands
Afstand tot: ZW 103 km
Gewijzigd: 01-10-2022 13:25
Licht bewolkt  
Licht bewolkt  
   Wind: varieert 25.9 km/h
Wind: varieert 25.9 km/h
Temperatuur: 17°C
Dauwpunt: 12°C
Vochtigheid: 73%
Barometer: 1004 hPa
Bewolking: Licht bewolkt
Zicht: meer dan 10 km
Bewolking: Licht bewolkt 1900 ft
EHDL 011125Z AUTO VRB14KT 9999 FEW019CB 17/12 Q1004 BLU
EHMA - Awg-1 Sea, Netherlands
Afstand tot: NW 105 km
Gewijzigd: 01-10-2022 13:25
Gedeeltelijk bewolkt  
Gedeeltelijk bewolkt  
   Wind: WNW 44.4 km/h
Wind: WNW 44.4 km/h
Temperatuur: 15°C
Dauwpunt: 11°C
Vochtigheid: 77%
Barometer: 1001 hPa
Bewolking: Gedeeltelijk bewolkt
Zicht: meer dan 10 km
Bewolking: Licht bewolkt 2200 ft,
Gedeeltelijk bewolkt 2500 ft
EHMA 011125Z AUTO 29024KT 9999 FEW022 SCT025 15/11 Q1001
EDDW - Bremen, Germany
Afstand tot: ONO 135 km
Gewijzigd: 01-10-2022 13:20
Grotendeels bewolkt  
Grotendeels bewolkt  
   Wind: WZW 24.1 km/h
Wind: WZW 24.1 km/h
Temperatuur: 16°C
Dauwpunt: 12°C
Vochtigheid: 77%
Barometer: 1001 hPa
Bewolking: Grotendeels bewolkt
Zicht: meer dan 10 km
Bewolking: Gedeeltelijk bewolkt 1700 ft,
Grotendeels bewolkt 2200 ft,
Grotendeels bewolkt 2900 ft
EDDW 011120Z AUTO 25013KT 9999 SCT017 BKN022 BKN029 16/12 Q1001 TEMPO 27015G25KT SHRA SCT012CB
EHVL - Vlieland Island, Netherlands
Afstand tot: WNW 138 km
Gewijzigd: 01-10-2022 13:26
Grotendeels bewolkt  
Grotendeels bewolkt  
   Wind: Westen 38.9 km/h
Wind: Westen 38.9 km/h
Temperatuur: 16°C
Dauwpunt: 12°C
Vochtigheid: 77%
Barometer: 1002 hPa
Bewolking: Grotendeels bewolkt
Zicht: meer dan 10 km
Bewolking: Gedeeltelijk bewolkt 2100 ft,
Grotendeels bewolkt 2500 ft,
Grotendeels bewolkt 3000 ft
EHVL 011126Z AUTO 28021KT 9999 SCT021 BKN025 BKN030 16/12 Q1002 WHT
EDLV - Niederrhein, Germany
Afstand tot: ZZW 139 km
Gewijzigd: 01-10-2022 13:20
Licht bewolkt  
Licht bewolkt  
   Wind: Westen 29.6 km/h
Wind: Westen 29.6 km/h
Temperatuur: 17°C
Dauwpunt: 12°C
Vochtigheid: 73%
Barometer: 1005 hPa
Bewolking: Licht bewolkt
Zicht: meer dan 10 km
Bewolking: Licht bewolkt 2000 ft
EDLV 011120Z 26016KT 9999 FEW020 17/12 Q1005 RERA
EHKD - De Kooy (navy), Netherlands
Afstand tot: W 144 km
Gewijzigd: 01-10-2022 13:27
Grotendeels bewolkt  
Grotendeels bewolkt  
   Wind: Westen 31.5 km/h
Wind: Westen 31.5 km/h
Temperatuur: 17°C
Dauwpunt: 12°C
Vochtigheid: 73%
Barometer: 1003 hPa
Bewolking: Grotendeels bewolkt
Zicht: meer dan 10 km
Bewolking: Gedeeltelijk bewolkt 2200 ft,
Gedeeltelijk bewolkt 2600 ft,
Grotendeels bewolkt 3100 ft
EHKD 011127Z AUTO 28017KT 240V320 9999 SCT022 SCT026 BKN031 17/12 Q1003 WHT
EDLW - Dortmund/Wickede, Germany
Afstand tot: ZZO 150 km
Gewijzigd: 01-10-2022 13:20
Gedeeltelijk bewolkt  
Gedeeltelijk bewolkt  
   Wind: ZW 25.9 km/h
Wind: ZW 25.9 km/h
Temperatuur: 15°C
Dauwpunt: 12°C
Vochtigheid: 82%
Barometer: 1005 hPa
Bewolking: Gedeeltelijk bewolkt
Zicht: meer dan 10 km
Bewolking: Gedeeltelijk bewolkt 1100 ft
EDLW 011120Z 22014KT 9999 SCT011 15/12 Q1005
EHVK - Volkel Rnlafb, Netherlands
Afstand tot: ZZW 149 km
Gewijzigd: 01-10-2022 13:33
Grotendeels bewolkt  
Grotendeels bewolkt  
   Wind: Westen 27.8 km/h<br />Gust to 27.8 km/h
Wind: Westen 27.8 km/h
Gust to 27.8 km/h
Temperatuur: 17°C
Dauwpunt: 12°C
Vochtigheid: 73%
Barometer: 1005 hPa
Bewolking: Grotendeels bewolkt
Zicht: meer dan 10 km
Bewolking: Gedeeltelijk bewolkt 2200 ft,
Grotendeels bewolkt 2500 ft,
Grotendeels bewolkt 3300 ft
EHVK 011133Z AUTO 27015G25KT 240V330 9999 SCT022 BKN025 BKN033 17/12 Q1005 WHT
EDLW - Dortmund/Wickede, Germany
Afstand tot: ZZO 150 km
Gewijzigd: 01-10-2022 13:20
Gedeeltelijk bewolkt  
Gedeeltelijk bewolkt  
   Wind: ZW 25.9 km/h
Wind: ZW 25.9 km/h
Temperatuur: 15°C
Dauwpunt: 12°C
Vochtigheid: 82%
Barometer: 1005 hPa
Bewolking: Gedeeltelijk bewolkt
Zicht: meer dan 10 km
Bewolking: Gedeeltelijk bewolkt 1100 ft
EDLW 011120Z 22014KT 9999 SCT011 15/12 Q1005
EHMG - L9-Ff-1 Sea, Netherlands
Afstand tot: NW 155 km
Gewijzigd: 01-10-2022 13:25
Gedeeltelijk bewolkt  
Gedeeltelijk bewolkt  
   Wind: WNW 44.4 km/h
Wind: WNW 44.4 km/h
Temperatuur: 16°C
Dauwpunt: 9°C
Vochtigheid: 63%
Barometer: 1002 hPa
Bewolking: Gedeeltelijk bewolkt
Zicht: meer dan 10 km
Bewolking: Licht bewolkt 2300 ft,
Gedeeltelijk bewolkt 2700 ft
EHMG 011125Z AUTO 29024KT 260V050 9999 FEW023 SCT027 16/09 Q1002
ETHB - Buckeburg(Ger-Ar, Germany
Afstand tot: OZO 161 km
Gewijzigd: 01-10-2022 13:20
  
  
   Wind: Westen 25.9 km/h
Wind: Westen 25.9 km/h
Temperatuur: 14°C
Dauwpunt: 11°C
Vochtigheid: 82%
Barometer: 1002 hPa
Zicht: meer dan 10 km
ETHB 011120Z AUTO 26014KT 9999 // ////// 14/11 Q1002 ///
ETMN - Nordholz (ger-Na, Germany
Afstand tot: NO 164 km
Gewijzigd: 01-10-2022 13:20
Grotendeels bewolkt  
Grotendeels bewolkt  
   Wind: Westen 35.2 km/h
Wind: Westen 35.2 km/h
Temperatuur: 17°C
Dauwpunt: 10°C
Vochtigheid: 64%
Barometer: 999 hPa
Bewolking: Grotendeels bewolkt
Zicht: meer dan 10 km
Bewolking: Licht bewolkt 1200 ft,
Licht bewolkt 1500 ft,
Grotendeels bewolkt 21000 ft
ETMN 011120Z 27019KT 9999 FEW012 FEW015CB BKN210 17/10 Q0999 BLU+
EDDL - Duesseldorf, Germany
Afstand tot: Z 165 km
Gewijzigd: 01-10-2022 13:20
Regenbuien, Gedeeltelijk bewolkt  
Regenbuien, Gedeeltelijk bewolkt  
   Wind: Westen 22.2 km/h
Wind: Westen 22.2 km/h
Bewolking: Gedeeltelijk bewolkt
Zicht: meer dan 10 km
Bewolking: Gedeeltelijk bewolkt 2100 ft
EDDL 011120Z AUTO 26012KT 9999 VCSH SCT021 FEW///TCU 17/13 Q1005 TEMPO 27015G25KT SHRA
EDLN - Monchengladbach, Germany
Afstand tot: Z 174 km
Gewijzigd: 01-10-2022 13:20
Grotendeels bewolkt  
Grotendeels bewolkt  
   Wind: varieert 13 km/h
Wind: varieert 13 km/h
Temperatuur: 16°C
Dauwpunt: 13°C
Vochtigheid: 83%
Barometer: 1005 hPa
Bewolking: Grotendeels bewolkt
Zicht: meer dan 10 km
Bewolking: Grotendeels bewolkt 2100 ft
EDLN 011120Z VRB07KT 9999 BKN021 16/13 Q1005

Script ontwikkeld door  Saratoga-weather.org Aangepast voor de template door  Weerstation Leuven

U vindt ons ook hier:

Het Weer Aktueel

European Weather Network

Weather Underground

Wetterpage 24

Apparatuur in gebruik:

Weerstation
Davis VP2

Weerprogramma
Meteohub

Hardware
RaspberryPI, Wireless Weather Envoy, MeteoStick, TP-Link MR3020

Leverancier
Weerhuisje.nl weerstations

Davis VP2

Meteohub

RaspberryPI, Wireless Weather Envoy, MeteoStick, TP-Link MR3020

Weerhuisje.nl weerstations